createdAt,value
2023-05-18T00:01:34.750Z,18.77
2023-05-18T00:04:06.753Z,20.17
2023-05-18T00:06:37.153Z,19.05
2023-05-18T00:09:08.916Z,18.77
2023-05-18T00:11:43.482Z,19.17
2023-05-18T00:14:13.976Z,19.38
2023-05-18T00:16:44.350Z,18.50
2023-05-18T00:19:17.845Z,18.67
2023-05-18T00:21:49.332Z,19.77
2023-05-18T00:24:20.824Z,17.85
2023-05-18T00:26:52.249Z,18.67
2023-05-18T00:29:23.142Z,18.80
2023-05-18T00:31:53.701Z,20.17
2023-05-18T00:34:25.279Z,19.23
2023-05-18T00:36:55.555Z,18.55
2023-05-18T00:39:25.909Z,19.20
2023-05-18T00:41:56.240Z,18.52
2023-05-18T00:44:27.979Z,18.65
2023-05-18T00:46:58.347Z,18.73
2023-05-18T00:49:29.801Z,18.97
2023-05-18T00:52:01.040Z,18.80
2023-05-18T00:54:31.612Z,18.67
2023-05-18T00:57:05.982Z,19.07
2023-05-18T00:59:37.477Z,18.08
2023-05-18T01:02:09.405Z,19.98
2023-05-18T01:04:43.480Z,18.70
2023-05-18T01:07:15.343Z,19.33
2023-05-18T01:09:46.142Z,18.83
2023-05-18T01:12:27.458Z,18.75
2023-05-18T01:15:11.329Z,17.48
2023-05-18T01:17:53.725Z,18.92
2023-05-18T01:20:52.327Z,18.65
2023-05-18T01:23:44.047Z,18.70
2023-05-18T01:26:18.510Z,18.58
2023-05-18T01:28:49.526Z,19.05
2023-05-18T01:31:20.477Z,18.52
2023-05-18T01:33:50.804Z,17.70
2023-05-18T01:36:21.154Z,18.73
2023-05-18T01:38:53.043Z,18.50
2023-05-18T01:41:32.394Z,18.92
2023-05-18T01:44:26.407Z,17.77
2023-05-18T01:47:13.537Z,18.60
2023-05-18T01:50:02.012Z,18.95
2023-05-18T01:52:41.881Z,18.17
2023-05-18T01:55:13.655Z,17.02
2023-05-18T01:57:48.707Z,18.40
2023-05-18T02:00:21.258Z,17.42
2023-05-18T02:02:51.986Z,18.60
2023-05-18T02:05:22.737Z,18.00
2023-05-18T02:07:52.928Z,18.50
2023-05-18T02:10:23.738Z,17.13
2023-05-18T02:12:55.784Z,18.67
2023-05-18T02:15:26.320Z,18.42
2023-05-18T02:18:00.594Z,18.00
2023-05-18T02:20:35.159Z,18.20
2023-05-18T02:23:07.804Z,17.60
2023-05-18T02:25:39.571Z,18.55
2023-05-18T02:28:09.944Z,18.35
2023-05-18T02:30:42.436Z,18.30
2023-05-18T02:33:13.598Z,17.70
2023-05-18T02:35:44.248Z,18.48
2023-05-18T02:38:14.977Z,17.53
2023-05-18T02:40:45.692Z,18.95
2023-05-18T02:43:18.007Z,17.92
2023-05-18T02:45:51.074Z,18.90
2023-05-18T02:48:22.115Z,19.15
2023-05-18T02:50:52.653Z,16.33
2023-05-18T02:53:24.230Z,17.58
2023-05-18T02:56:05.659Z,18.40
2023-05-18T02:58:47.374Z,17.92
2023-05-18T03:01:29.131Z,16.30
2023-05-18T03:04:02.775Z,16.92
2023-05-18T03:06:33.893Z,17.83
2023-05-18T03:09:04.382Z,17.57
2023-05-18T03:11:43.003Z,17.48
2023-05-18T03:14:13.725Z,18.50
2023-05-18T03:16:44.308Z,17.87
2023-05-18T03:19:18.639Z,18.80
2023-05-18T03:21:53.423Z,18.58
2023-05-18T03:24:24.402Z,19.10
2023-05-18T03:26:57.585Z,18.23
2023-05-18T03:29:31.193Z,17.40
2023-05-18T03:32:05.262Z,17.67
2023-05-18T03:34:35.931Z,16.92
2023-05-18T03:37:06.874Z,17.88
2023-05-18T03:39:37.426Z,16.90
2023-05-18T03:44:38.708Z,18.30
2023-05-18T03:47:11.791Z,17.92
2023-05-18T03:49:42.277Z,18.25
2023-05-18T03:52:12.722Z,18.77
2023-05-18T03:54:45.223Z,17.20
2023-05-18T03:57:15.576Z,17.48
2023-05-18T03:59:47.799Z,16.75
2023-05-18T04:02:19.310Z,18.00
2023-05-18T04:04:50.796Z,17.77
2023-05-18T04:07:21.112Z,17.98
2023-05-18T04:09:52.142Z,17.60
2023-05-18T04:12:22.997Z,17.23
2023-05-18T04:14:53.305Z,18.33
2023-05-18T04:17:26.721Z,18.10
2023-05-18T04:19:57.100Z,18.17
2023-05-18T04:22:28.111Z,17.60
2023-05-18T04:24:59.761Z,17.70
2023-05-18T04:27:31.957Z,17.88
2023-05-18T04:30:02.268Z,17.48
2023-05-18T04:32:38.646Z,18.48
2023-05-18T04:35:10.412Z,18.25
2023-05-18T04:37:43.794Z,18.33
2023-05-18T04:40:21.757Z,18.83
2023-05-18T04:42:52.964Z,17.90
2023-05-18T04:45:29.631Z,18.25
2023-05-18T04:50:32.878Z,19.65
2023-05-18T04:53:04.951Z,18.10
2023-05-18T04:55:37.681Z,18.30
2023-05-18T04:58:12.833Z,18.88
2023-05-18T05:00:43.435Z,19.27
2023-05-18T05:03:14.268Z,18.75
2023-05-18T05:05:45.489Z,18.75
2023-05-18T05:08:16.209Z,16.33
2023-05-18T05:10:46.526Z,18.23
2023-05-18T05:13:17.972Z,19.20
2023-05-18T05:15:48.486Z,18.20
2023-05-18T05:18:18.906Z,18.70
2023-05-18T05:20:49.295Z,17.80
2023-05-18T05:23:19.949Z,17.52
2023-05-18T05:25:50.754Z,17.60
2023-05-18T05:28:21.207Z,18.53
2023-05-18T05:30:51.596Z,16.73
2023-05-18T05:33:22.007Z,17.03
2023-05-18T05:35:52.832Z,18.10
2023-05-18T05:38:23.671Z,17.50
2023-05-18T05:40:54.040Z,17.23
2023-05-18T05:43:24.325Z,17.13
2023-05-18T05:45:54.684Z,17.40
2023-05-18T05:48:25.680Z,16.60
2023-05-18T05:50:56.113Z,17.63
2023-05-18T05:53:27.430Z,17.63
2023-05-18T05:55:58.042Z,17.60
2023-05-18T05:58:28.486Z,17.30
2023-05-18T06:01:03.778Z,17.15
2023-05-18T06:03:41.883Z,17.77
2023-05-18T06:06:14.170Z,16.73
2023-05-18T06:08:47.823Z,17.92
2023-05-18T06:11:23.869Z,17.77
2023-05-18T06:13:56.533Z,16.50
2023-05-18T06:16:30.331Z,16.88
2023-05-18T06:19:03.411Z,17.65
2023-05-18T06:21:36.453Z,17.88
2023-05-18T06:24:09.833Z,17.02
2023-05-18T06:30:27.048Z,17.23
2023-05-18T06:33:21.325Z,17.15
2023-05-18T06:35:53.760Z,17.95
2023-05-18T06:38:27.119Z,17.40
2023-05-18T06:40:59.476Z,17.73
2023-05-18T06:43:53.715Z,18.25
2023-05-18T06:46:35.877Z,18.08
2023-05-18T06:49:17.965Z,18.60
2023-05-18T06:51:50.357Z,18.80
2023-05-18T06:54:22.562Z,17.73
2023-05-18T06:56:54.733Z,19.08
2023-05-18T06:59:27.660Z,17.42
2023-05-18T07:02:01.855Z,17.48
2023-05-18T07:04:34.030Z,17.77
2023-05-18T07:07:04.351Z,17.73
2023-05-18T07:09:34.729Z,17.25
2023-05-18T07:12:05.187Z,17.73
2023-05-18T07:14:35.869Z,16.67
2023-05-18T07:17:07.054Z,18.50
2023-05-18T07:19:37.833Z,18.15
2023-05-18T07:22:10.660Z,18.17
2023-05-18T07:24:40.990Z,18.48
2023-05-18T07:27:11.380Z,17.73
2023-05-18T07:29:42.831Z,16.37
2023-05-18T07:32:13.409Z,16.63
2023-05-18T07:34:49.192Z,16.73
2023-05-18T07:37:19.586Z,17.40
2023-05-18T07:39:49.912Z,16.83
2023-05-18T07:42:20.188Z,16.03
2023-05-18T07:44:53.490Z,17.03
2023-05-18T07:47:24.038Z,15.93
2023-05-18T07:49:54.505Z,17.52
2023-05-18T07:52:24.877Z,17.00
2023-05-18T07:54:57.844Z,17.07
2023-05-18T07:57:29.634Z,16.83
2023-05-18T08:00:00.013Z,17.17
2023-05-18T08:02:32.832Z,16.83
2023-05-18T08:05:04.294Z,17.58
2023-05-18T08:07:35.931Z,18.50
2023-05-18T08:10:07.069Z,17.85
2023-05-18T08:12:38.374Z,18.42
2023-05-18T08:15:09.492Z,19.45
2023-05-18T08:17:39.827Z,18.13
2023-05-18T08:20:11.168Z,18.27
2023-05-18T08:25:12.746Z,19.25
2023-05-18T08:28:10.706Z,19.02
2023-05-18T08:30:41.083Z,18.40
2023-05-18T08:33:11.730Z,19.52
2023-05-18T08:35:42.404Z,19.15
2023-05-18T08:38:12.742Z,20.10
2023-05-18T08:40:57.161Z,19.03
2023-05-18T08:43:35.629Z,18.30
2023-05-18T08:46:27.819Z,18.48
2023-05-18T08:48:59.947Z,17.95
2023-05-18T08:51:36.201Z,17.30
2023-05-18T08:54:10.221Z,18.50
2023-05-18T08:56:42.286Z,18.75
2023-05-18T08:59:14.295Z,19.27
2023-05-18T09:01:45.589Z,18.55
2023-05-18T09:04:16.496Z,18.67
2023-05-18T09:06:47.986Z,18.20
2023-05-18T09:09:18.714Z,17.27
2023-05-18T09:11:50.832Z,17.83
2023-05-18T09:14:21.756Z,18.85
2023-05-18T09:19:22.792Z,18.70
2023-05-18T09:21:53.423Z,16.40
2023-05-18T09:24:24.987Z,18.58
2023-05-18T09:26:55.865Z,18.38
2023-05-18T09:29:26.720Z,19.05
2023-05-18T09:32:00.419Z,18.55
2023-05-18T09:34:43.374Z,19.75
2023-05-18T09:37:14.438Z,18.02
2023-05-18T09:39:45.778Z,19.10
2023-05-18T09:42:16.096Z,19.10
2023-05-18T09:44:48.594Z,19.77
2023-05-18T09:47:20.654Z,19.40
2023-05-18T09:49:51.278Z,18.20
2023-05-18T09:52:21.865Z,19.08
2023-05-18T09:55:07.038Z,18.80
2023-05-18T09:57:46.419Z,17.25
2023-05-18T10:00:24.863Z,19.70
2023-05-18T10:02:55.868Z,20.15
2023-05-18T10:05:31.359Z,20.25
2023-05-18T10:08:03.491Z,20.02
2023-05-18T10:10:33.970Z,18.63
2023-05-18T10:13:04.594Z,19.07
2023-05-18T10:15:35.823Z,19.38
2023-05-18T10:18:08.914Z,18.77
2023-05-18T10:20:39.588Z,19.10
2023-05-18T10:23:10.745Z,18.60
2023-05-18T10:25:42.166Z,18.70
2023-05-18T10:28:14.227Z,21.00
2023-05-18T10:30:46.066Z,20.17
2023-05-18T10:33:28.494Z,20.52
2023-05-18T10:36:00.849Z,19.10
2023-05-18T10:38:31.858Z,19.42
2023-05-18T10:41:03.450Z,19.77
2023-05-18T10:43:36.168Z,19.40
2023-05-18T10:46:12.335Z,19.23
2023-05-18T10:48:43.384Z,19.45
2023-05-18T10:51:13.949Z,18.17
2023-05-18T10:53:46.998Z,18.77
2023-05-18T10:56:20.295Z,19.88
2023-05-18T10:58:51.142Z,19.85
2023-05-18T11:01:21.984Z,18.83
2023-05-18T11:03:52.474Z,19.48
2023-05-18T11:06:26.980Z,19.67
2023-05-18T11:08:57.761Z,19.27
2023-05-18T11:11:32.352Z,18.00
2023-05-18T11:14:05.289Z,19.90
2023-05-18T11:16:38.365Z,18.40
2023-05-18T11:19:10.301Z,18.38
2023-05-18T11:21:43.762Z,18.83
2023-05-18T11:24:33.947Z,17.25
2023-05-18T11:27:10.937Z,17.23
2023-05-18T11:29:53.548Z,18.48
2023-05-18T11:32:32.780Z,18.10
2023-05-18T11:35:03.585Z,18.65
2023-05-18T11:37:43.725Z,19.50
2023-05-18T11:40:18.675Z,19.13
2023-05-18T11:43:01.613Z,19.42
2023-05-18T11:45:32.014Z,19.05
2023-05-18T11:48:06.034Z,18.73
2023-05-18T11:50:36.894Z,19.45
2023-05-18T11:53:07.392Z,19.08
2023-05-18T11:55:41.611Z,18.63
2023-05-18T11:58:13.042Z,19.65
2023-05-18T12:00:44.344Z,17.92
2023-05-18T12:03:15.751Z,18.73
2023-05-18T12:05:51.761Z,18.05
2023-05-18T12:08:23.189Z,18.15
2023-05-18T12:10:54.087Z,19.58
2023-05-18T12:13:26.323Z,18.35
2023-05-18T12:15:59.313Z,19.23
2023-05-18T12:18:32.396Z,17.55
2023-05-18T12:21:07.472Z,19.67
2023-05-18T12:23:43.743Z,18.77
2023-05-18T12:26:14.089Z,18.33
2023-05-18T12:28:44.552Z,18.17
2023-05-18T12:31:15.110Z,19.40
2023-05-18T12:33:45.991Z,20.60
2023-05-18T12:36:17.280Z,21.27
2023-05-18T12:38:52.501Z,19.70
2023-05-18T13:04:01.791Z,20.40
2023-05-18T13:06:32.671Z,21.08
2023-05-18T13:09:02.830Z,20.70
2023-05-18T13:11:34.300Z,20.88
2023-05-18T13:14:09.544Z,20.92
2023-05-18T13:16:47.973Z,21.05
2023-05-18T13:19:22.105Z,20.88
2023-05-18T13:21:59.370Z,20.85
2023-05-18T13:24:30.257Z,20.83
2023-05-18T13:29:31.476Z,20.40
2023-05-18T13:32:01.875Z,20.50
2023-05-18T13:34:32.156Z,19.17
2023-05-18T13:37:03.343Z,19.52
2023-05-18T13:39:33.712Z,20.13
2023-05-18T13:42:05.451Z,19.63
2023-05-18T13:44:36.105Z,18.83
2023-05-18T13:47:06.595Z,19.50
2023-05-18T13:49:36.989Z,18.97
2023-05-18T13:52:07.898Z,20.00
2023-05-18T13:54:38.376Z,19.45
2023-05-18T13:57:10.365Z,19.20
2023-05-18T13:59:40.614Z,18.65
2023-05-18T14:02:10.935Z,19.13
2023-05-18T14:04:41.313Z,18.07
2023-05-18T14:07:12.204Z,19.23
2023-05-18T14:09:42.757Z,17.63
2023-05-18T14:12:13.833Z,19.20
2023-05-18T14:19:46.576Z,18.30
2023-05-18T14:22:18.911Z,17.83
2023-05-18T14:24:49.345Z,17.38
2023-05-18T14:27:19.709Z,17.77
2023-05-18T14:29:50.588Z,17.83
2023-05-18T14:32:23.639Z,16.65
2023-05-18T14:34:57.662Z,17.60
2023-05-18T14:37:28.478Z,17.13
2023-05-18T14:39:58.873Z,17.42
2023-05-18T14:42:29.333Z,17.40
2023-05-18T14:44:59.692Z,17.93
2023-05-18T14:47:30.110Z,16.80
2023-05-18T14:50:00.466Z,17.03
2023-05-18T14:52:31.033Z,16.47
2023-05-18T14:55:01.538Z,16.17
2023-05-18T14:57:32.013Z,16.60
2023-05-18T15:00:03.131Z,16.83
2023-05-18T15:05:03.834Z,15.93
2023-05-18T15:07:34.068Z,16.45
2023-05-18T15:10:04.366Z,15.87
2023-05-18T15:12:34.613Z,16.98
2023-05-18T15:15:05.070Z,16.10
2023-05-18T15:17:35.367Z,15.47
2023-05-18T15:20:07.136Z,15.87
2023-05-18T15:22:38.333Z,14.98
2023-05-18T15:25:09.957Z,16.40
2023-05-18T15:27:41.656Z,16.23
2023-05-18T15:30:14.057Z,15.50
2023-05-18T15:32:47.465Z,16.92
2023-05-18T15:35:20.628Z,16.08
2023-05-18T15:37:52.622Z,15.68
2023-05-18T15:40:23.062Z,15.82
2023-05-18T15:42:53.441Z,17.03
2023-05-18T15:45:23.669Z,15.70
2023-05-18T15:47:54.048Z,16.43
2023-05-18T15:50:24.330Z,16.00
2023-05-18T15:52:55.197Z,16.73
2023-05-18T15:55:25.364Z,15.95
2023-05-18T15:57:55.685Z,16.30
2023-05-18T16:00:26.672Z,15.30
2023-05-18T16:02:57.152Z,15.52
2023-05-18T16:05:27.441Z,16.02
2023-05-18T16:07:57.765Z,16.83
2023-05-18T16:10:28.276Z,16.38
2023-05-18T16:13:02.850Z,15.57
2023-05-18T16:15:33.113Z,15.98
2023-05-18T16:18:03.684Z,15.85
2023-05-18T16:20:34.310Z,15.57
2023-05-18T16:23:04.737Z,16.10
2023-05-18T16:25:35.136Z,16.10
2023-05-18T16:28:05.910Z,16.83
2023-05-18T16:30:36.067Z,16.90
2023-05-18T16:33:06.636Z,16.42
2023-05-18T16:35:36.903Z,16.10
2023-05-18T16:38:07.231Z,16.90
2023-05-18T16:40:37.512Z,16.65
2023-05-18T16:43:07.960Z,17.05
2023-05-18T16:45:38.480Z,16.60
2023-05-18T16:48:09.358Z,17.80
2023-05-18T16:50:40.141Z,17.58
2023-05-18T16:53:10.274Z,16.03
2023-05-18T16:55:40.619Z,17.70
2023-05-18T16:58:11.106Z,17.53
2023-05-18T17:00:41.440Z,17.10
2023-05-18T17:03:11.812Z,17.43
2023-05-18T17:05:42.297Z,17.00
2023-05-18T17:08:13.584Z,18.03
2023-05-18T17:10:44.115Z,17.55
2023-05-18T17:13:14.454Z,18.70
2023-05-18T17:15:44.859Z,19.65
2023-05-18T17:18:15.311Z,18.70
2023-05-18T17:20:45.657Z,18.90
2023-05-18T17:23:19.889Z,18.52
2023-05-18T17:25:50.549Z,18.23
2023-05-18T17:28:23.111Z,18.27
2023-05-18T17:30:53.354Z,18.37
2023-05-18T17:33:23.660Z,19.33
2023-05-18T17:35:54.083Z,19.50
2023-05-18T17:38:25.057Z,19.20
2023-05-18T17:40:55.321Z,17.92
2023-05-18T17:43:25.664Z,19.65
2023-05-18T17:45:56.055Z,18.53
2023-05-18T17:48:26.353Z,18.03
2023-05-18T17:50:56.822Z,19.23
2023-05-18T17:53:27.106Z,18.98
2023-05-18T17:55:57.464Z,18.98
2023-05-18T17:58:27.772Z,18.73
2023-05-18T18:00:58.286Z,19.47
2023-05-18T18:03:28.969Z,20.00
2023-05-18T18:05:59.468Z,19.30
2023-05-18T18:08:32.117Z,19.50
2023-05-18T18:11:03.335Z,20.00
2023-05-18T18:16:03.696Z,19.70
2023-05-18T18:18:35.093Z,20.50
2023-05-18T18:21:06.199Z,19.90
2023-05-18T18:26:07.853Z,19.58
2023-05-18T18:28:38.748Z,19.65
2023-05-18T18:31:09.182Z,18.85
2023-05-18T18:33:39.370Z,19.40
2023-05-18T18:36:11.669Z,19.25
2023-05-18T18:38:42.091Z,20.67
2023-05-18T18:41:12.450Z,19.67
2023-05-18T18:43:42.807Z,20.08
2023-05-18T18:46:13.284Z,20.00
2023-05-18T18:48:44.941Z,19.80
2023-05-18T18:51:15.203Z,19.95
2023-05-18T18:53:45.811Z,19.92
2023-05-18T18:56:16.076Z,19.02
2023-05-18T18:58:46.405Z,20.52
2023-05-18T19:01:16.765Z,19.97
2023-05-18T19:03:47.134Z,19.33
2023-05-18T19:06:19.746Z,19.38
2023-05-18T19:08:50.030Z,20.67
2023-05-18T19:11:20.433Z,19.83
2023-05-18T19:13:51.201Z,19.10
2023-05-18T19:16:21.712Z,21.20
2023-05-18T19:18:52.114Z,20.63
2023-05-18T19:21:25.440Z,18.37
2023-05-18T19:23:56.047Z,19.35
2023-05-18T19:26:29.267Z,20.10
2023-05-18T19:29:00.107Z,20.27
2023-05-18T19:31:30.523Z,20.05
2023-05-18T19:34:03.969Z,18.53
2023-05-18T19:36:34.385Z,18.55
2023-05-18T19:39:04.562Z,19.55
2023-05-18T19:41:34.926Z,17.90
2023-05-18T19:44:05.609Z,18.03
2023-05-18T19:46:36.093Z,17.35
2023-05-18T19:49:09.071Z,18.33
2023-05-18T19:51:39.961Z,18.80
2023-05-18T19:54:10.102Z,17.40
2023-05-18T19:56:40.301Z,18.27
2023-05-18T19:59:10.658Z,17.52
2023-05-18T20:01:41.118Z,19.07
2023-05-18T20:04:11.597Z,18.67
2023-05-18T20:06:43.133Z,17.80
2023-05-18T20:09:13.490Z,18.40
2023-05-18T20:11:43.795Z,18.63
2023-05-18T20:14:14.180Z,17.85
2023-05-18T20:16:44.585Z,17.90
2023-05-18T20:19:19.754Z,17.00
2023-05-18T20:21:51.052Z,18.23
2023-05-18T20:24:21.394Z,17.73
2023-05-18T20:26:53.355Z,17.23
2023-05-18T20:29:23.675Z,16.80
2023-05-18T20:31:54.564Z,17.83
2023-05-18T20:34:24.855Z,17.67
2023-05-18T20:36:55.323Z,16.47
2023-05-18T20:39:28.192Z,18.20
2023-05-18T20:42:00.020Z,18.10
2023-05-18T20:44:31.106Z,18.23
2023-05-18T20:49:35.469Z,18.02
2023-05-18T20:52:05.986Z,17.43
2023-05-18T20:54:36.253Z,17.37
2023-05-18T20:57:06.802Z,17.17
2023-05-18T20:59:37.079Z,16.83
2023-05-18T21:02:07.717Z,16.63
2023-05-18T21:04:38.176Z,17.57
2023-05-18T21:07:08.987Z,17.55
2023-05-18T21:09:39.254Z,16.50
2023-05-18T21:12:10.102Z,18.13
2023-05-18T21:14:40.394Z,16.77
2023-05-18T21:17:10.843Z,16.83
2023-05-18T21:19:41.350Z,17.55
2023-05-18T21:22:14.005Z,16.38
2023-05-18T21:24:44.318Z,16.73
2023-05-18T21:27:14.961Z,16.87
2023-05-18T21:29:45.277Z,16.40
2023-05-18T21:32:16.381Z,16.93
2023-05-18T21:34:46.723Z,17.05
2023-05-18T21:37:18.780Z,15.97
2023-05-18T21:39:52.134Z,17.25
2023-05-18T21:42:22.751Z,16.80
2023-05-18T21:44:53.080Z,16.23
2023-05-18T21:47:23.585Z,15.33
2023-05-18T21:49:53.866Z,15.50
2023-05-18T21:52:24.220Z,15.23
2023-05-18T21:54:54.469Z,15.07
2023-05-18T21:57:25.197Z,14.80
2023-05-18T21:59:55.560Z,15.57
2023-05-18T22:02:25.886Z,15.60
2023-05-18T22:04:56.640Z,14.63
2023-05-18T22:07:26.787Z,15.83
2023-05-18T22:09:57.370Z,14.98
2023-05-18T22:12:27.948Z,14.93
2023-05-18T22:14:58.825Z,14.80
2023-05-18T22:17:29.236Z,14.55
2023-05-18T22:20:00.543Z,14.83
2023-05-18T22:25:01.373Z,16.73
2023-05-18T22:27:32.590Z,16.60
2023-05-18T22:30:03.569Z,16.48
2023-05-18T22:32:34.595Z,15.40
2023-05-18T22:37:36.060Z,16.48
2023-05-18T22:40:08.689Z,15.93
2023-05-18T22:42:40.031Z,15.70
2023-05-18T22:45:11.731Z,16.02
2023-05-18T22:47:42.226Z,14.77
2023-05-18T22:50:13.110Z,15.27
2023-05-18T22:52:43.888Z,15.15
2023-05-18T22:56:33.567Z,15.30
2023-05-18T22:59:03.965Z,16.60
2023-05-18T23:01:34.354Z,15.87
2023-05-18T23:04:05.663Z,15.93
2023-05-18T23:09:05.896Z,15.10
2023-05-18T23:11:37.384Z,15.53
2023-05-18T23:14:07.603Z,16.02
2023-05-18T23:16:38.706Z,15.95
2023-05-18T23:19:11.956Z,15.70
2023-05-18T23:21:45.512Z,15.75
2023-05-18T23:24:17.835Z,15.93
2023-05-18T23:26:48.589Z,16.95
2023-05-18T23:29:19.468Z,15.93
2023-05-18T23:31:50.370Z,15.70
2023-05-18T23:34:21.124Z,15.75
2023-05-18T23:36:56.376Z,15.15
2023-05-18T23:39:29.394Z,16.52
2023-05-18T23:42:03.794Z,17.10
2023-05-18T23:44:34.594Z,16.70
2023-05-18T23:47:06.630Z,17.08
2023-05-18T23:49:38.000Z,16.38
2023-05-18T23:52:10.350Z,14.98
2023-05-18T23:54:41.126Z,15.40
2023-05-18T23:57:13.390Z,16.25
2023-05-18T23:59:45.119Z,15.85
